Time;durP1;ratioP1;P1;durP2;ratioP2;P2;SDS_P1;SDS_P2;PMS_P1;PMS_P2;Temp;Humidity;BMP_temperature;BMP_pressure;BME280_temperature;BME280_humidity;BME280_pressure;Samples;Min_cycle;Max_cycle;Signal;HPM_P1;HPM_P2
2021/04/23 00:01:53;;;;;;;23.88;9.98;;;1.80;99.90;;;;;;4146777;28;20104;-80
2021/04/23 00:04:03;;;;;;;27.30;10.48;;;1.80;99.90;;;;;;4130691;28;20037;-80
2021/04/23 00:06:16;;;;;;;22.88;10.43;;;1.80;99.90;;;;;;4143392;28;20485;-79
2021/04/23 00:08:18;;;;;;;21.45;9.73;;;1.80;99.90;;;;;;4150734;28;20117;-80
2021/04/23 00:10:21;;;;;;;17.45;9.82;;;1.80;99.90;;;;;;4152190;28;20077;-80
2021/04/23 00:12:22;;;;;;;16.05;8.95;;;1.80;99.90;;;;;;4146871;28;20100;-79
2021/04/23 00:14:39;;;;;;;23.30;10.30;;;1.70;99.90;;;;;;4146769;28;20149;-79
2021/04/23 00:16:40;;;;;;;15.32;9.13;;;1.70;99.90;;;;;;4147060;28;20085;-80
2021/04/23 00:18:41;;;;;;;20.10;9.13;;;1.60;99.90;;;;;;4147061;28;20037;-80
2021/04/23 00:20:42;;;;;;;28.23;9.85;;;1.60;99.90;;;;;;4145554;28;20576;-79
2021/04/23 00:22:43;;;;;;;20.02;9.80;;;1.50;99.90;;;;;;4129916;28;20062;-80
2021/04/23 00:24:46;;;;;;;24.95;9.15;;;1.60;99.90;;;;;;4141621;28;20030;-80
2021/04/23 00:26:48;;;;;;;20.33;9.25;;;1.60;99.90;;;;;;4132093;28;20529;-80
2021/04/23 00:28:48;;;;;;;18.92;8.88;;;1.60;99.90;;;;;;4150111;28;20392;-80
2021/04/23 00:30:52;;;;;;;20.20;9.35;;;1.50;99.90;;;;;;4142060;28;20035;-80
2021/04/23 00:32:54;;;;;;;20.58;9.10;;;1.50;99.90;;;;;;4133116;28;20030;-80
2021/04/23 00:34:55;;;;;;;21.73;9.23;;;1.40;99.90;;;;;;4125083;28;20695;-80
2021/04/23 00:36:55;;;;;;;27.02;9.77;;;1.50;99.90;;;;;;4144633;28;20064;-80
2021/04/23 00:38:56;;;;;;;18.63;10.95;;;1.40;99.90;;;;;;4115479;28;20057;-79
2021/04/23 00:41:06;;;;;;;25.85;10.75;;;1.40;99.90;;;;;;4156377;28;20465;-80
2021/04/23 00:43:08;;;;;;;28.50;11.10;;;1.30;99.90;;;;;;4146654;28;20044;-79
2021/04/23 00:45:13;;;;;;;15.07;9.88;;;1.30;99.90;;;;;;4141160;28;20580;-77
2021/04/23 00:47:14;;;;;;;20.30;9.85;;;1.20;99.90;;;;;;4167429;28;20044;-79
2021/04/23 00:49:15;;;;;;;20.38;9.80;;;1.20;99.90;;;;;;4151373;28;20444;-80
2021/04/23 00:51:24;;;;;;;25.88;10.25;;;1.20;99.90;;;;;;4149837;28;20049;-78
2021/04/23 00:53:29;;;;;;;20.67;9.35;;;1.20;99.90;;;;;;4162540;28;20037;-80
2021/04/23 00:55:30;;;;;;;21.17;9.93;;;1.10;99.90;;;;;;4162499;28;20485;-78
2021/04/23 00:57:31;;;;;;;21.10;9.85;;;1.10;99.90;;;;;;4146074;28;20034;-79
2021/04/23 00:59:32;;;;;;;23.52;9.70;;;1.10;99.90;;;;;;4161622;28;20037;-80
2021/04/23 01:01:37;;;;;;;21.38;10.15;;;1.00;99.90;;;;;;4149682;28;20041;-79
2021/04/23 01:03:39;;;;;;;21.25;9.57;;;1.00;99.90;;;;;;4129837;28;20430;-79
2021/04/23 01:05:41;;;;;;;22.92;8.32;;;1.00;99.90;;;;;;4155491;28;20037;-80
2021/04/23 01:07:50;;;;;;;19.52;9.10;;;1.10;99.90;;;;;;4131882;28;20049;-80
2021/04/23 01:09:51;;;;;;;22.65;10.13;;;1.10;99.90;;;;;;4131754;28;20060;-79
2021/04/23 01:11:54;;;;;;;19.55;9.25;;;1.10;99.90;;;;;;4162228;28;20034;-80
2021/04/23 01:13:55;;;;;;;19.25;9.75;;;1.00;99.90;;;;;;4162153;28;20045;-80
2021/04/23 01:16:01;;;;;;;23.17;9.13;;;1.00;99.90;;;;;;4161930;28;20033;-80
2021/04/23 01:18:02;;;;;;;26.70;9.32;;;1.00;99.90;;;;;;4139565;28;20410;-80
2021/04/23 01:20:06;;;;;;;32.60;10.10;;;1.00;99.90;;;;;;4132654;28;20078;-79
2021/04/23 01:22:07;;;;;;;24.67;9.48;;;1.00;99.90;;;;;;4150996;28;20029;-79
2021/04/23 01:24:11;;;;;;;21.77;9.13;;;1.00;99.90;;;;;;4162105;28;20439;-80
2021/04/23 01:26:14;;;;;;;22.42;9.70;;;1.00;99.90;;;;;;4145155;28;20030;-79
2021/04/23 01:28:15;;;;;;;21.67;9.05;;;1.00;99.90;;;;;;4162206;28;20120;-80
2021/04/23 01:30:20;;;;;;;24.35;8.77;;;1.00;99.90;;;;;;4163228;28;20034;-80
2021/04/23 01:32:21;;;;;;;24.55;10.20;;;0.90;99.90;;;;;;4161876;28;20067;-79
2021/04/23 01:34:36;;;;;;;20.45;9.40;;;0.80;99.90;;;;;;4162908;28;20041;-79
2021/04/23 01:36:38;;;;;;;24.40;9.23;;;0.70;99.90;;;;;;4145451;28;20416;-79
2021/04/23 01:38:43;;;;;;;20.20;10.32;;;0.70;99.90;;;;;;4177290;28;20171;-79
2021/04/23 01:40:44;;;;;;;29.58;9.27;;;0.70;99.90;;;;;;4161731;28;20030;-79
2021/04/23 01:42:45;;;;;;;23.77;10.02;;;0.70;99.90;;;;;;4136776;28;20041;-79
2021/04/23 01:44:46;;;;;;;15.80;8.50;;;0.80;99.90;;;;;;4161028;28;20029;-80
2021/04/23 01:46:48;;;;;;;23.08;9.00;;;0.90;99.90;;;;;;4172544;28;20591;-79
2021/04/23 01:48:49;;;;;;;23.63;9.38;;;0.90;99.90;;;;;;4158823;28;20033;-79
2021/04/23 01:50:50;;;;;;;17.75;9.50;;;1.00;99.90;;;;;;4160081;28;20064;-79
2021/04/23 01:52:51;;;;;;;23.02;9.68;;;1.00;99.90;;;;;;4159833;28;20037;-80
2021/04/23 01:54:52;;;;;;;25.15;8.80;;;1.00;99.90;;;;;;4149019;28;20079;-79
2021/04/23 01:56:53;;;;;;;18.73;8.48;;;1.00;99.90;;;;;;4143309;28;20026;-80
2021/04/23 01:58:54;;;;;;;22.63;8.88;;;1.00;99.90;;;;;;4143522;28;20425;-80
2021/04/23 02:00:57;;;;;;;20.33;8.90;;;1.10;99.90;;;;;;4160095;28;20029;-78
2021/04/23 02:03:05;;;;;;;21.20;9.48;;;1.10;99.90;;;;;;4159047;28;20040;-77
2021/04/23 02:05:07;;;;;;;26.05;8.35;;;1.20;99.90;;;;;;4151404;28;20037;-79
2021/04/23 02:07:09;;;;;;;18.35;8.60;;;1.30;99.90;;;;;;4135251;28;20038;-80
2021/04/23 02:09:12;;;;;;;18.75;9.38;;;1.30;99.90;;;;;;4143270;28;20038;-79
2021/04/23 02:11:16;;;;;;;26.67;11.13;;;1.30;99.90;;;;;;4143817;28;20042;-80
2021/04/23 02:13:23;;;;;;;22.23;9.52;;;1.30;99.90;;;;;;4126923;28;20722;-80
2021/04/23 02:15:27;;;;;;;20.35;8.55;;;1.40;99.90;;;;;;4129516;28;20549;-80
2021/04/23 02:17:27;;;;;;;21.60;9.23;;;1.50;99.90;;;;;;4162102;28;20103;-80
2021/04/23 02:19:28;;;;;;;26.13;10.00;;;1.50;99.90;;;;;;4151655;28;20025;-80
2021/04/23 02:21:30;;;;;;;26.10;10.43;;;1.50;99.90;;;;;;4144407;28;20033;-80
2021/04/23 02:23:31;;;;;;;22.50;9.88;;;1.50;99.90;;;;;;4145169;28;20026;-80
2021/04/23 02:25:33;;;;;;;23.10;9.43;;;1.50;99.90;;;;;;4128282;28;20030;-80
2021/04/23 02:27:34;;;;;;;24.73;10.68;;;1.40;99.90;;;;;;4120110;28;20041;-79
2021/04/23 02:29:34;;;;;;;23.17;9.38;;;1.40;99.90;;;;;;4127855;28;20034;-79
2021/04/23 02:31:38;;;;;;;25.60;9.60;;;1.30;99.90;;;;;;4147929;28;20385;-80
2021/04/23 02:33:42;;;;;;;19.52;9.60;;;1.30;99.90;;;;;;4144125;28;20030;-80
2021/04/23 02:35:43;;;;;;;;;;;1.20;99.90;;;;;;4141218;28;20026;-79
2021/04/23 02:37:44;;;;;;;21.70;9.68;;;1.20;99.90;;;;;;4157146;28;19936;-79
2021/04/23 02:39:45;;;;;;;25.05;9.27;;;1.10;99.90;;;;;;4143624;28;20038;-79
2021/04/23 02:41:50;;;;;;;20.17;8.60;;;1.00;99.90;;;;;;4147101;28;20128;-78
2021/04/23 02:43:55;;;;;;;21.23;9.85;;;0.80;99.90;;;;;;4162469;28;20045;-80
2021/04/23 02:45:59;;;;;;;28.50;9.43;;;0.90;99.90;;;;;;4144401;28;20030;-80
2021/04/23 02:48:00;;;;;;;23.67;10.45;;;0.80;99.90;;;;;;4144876;28;20050;-80
2021/04/23 02:50:02;;;;;;;16.98;9.07;;;0.70;99.90;;;;;;4151437;28;20120;-77
2021/04/23 02:52:03;;;;;;;21.52;10.05;;;0.70;99.90;;;;;;4160618;28;20029;-77
2021/04/23 02:54:05;;;;;;;20.75;9.98;;;0.60;99.90;;;;;;4161265;28;20025;-79
2021/04/23 02:56:08;;;;;;;20.58;8.93;;;0.50;99.90;;;;;;4144529;28;20053;-80
2021/04/23 02:58:15;;;;;;;27.58;11.40;;;0.50;99.90;;;;;;4160555;28;20130;-77
2021/04/23 03:00:17;;;;;;;16.75;9.38;;;0.40;99.90;;;;;;4162325;28;20030;-78
2021/04/23 03:02:18;;;;;;;23.77;9.85;;;0.40;99.90;;;;;;4161147;28;20116;-78
2021/04/23 03:04:20;;;;;;;20.13;9.00;;;0.40;99.90;;;;;;4160828;28;20025;-79
2021/04/23 03:06:21;;;;;;;27.40;11.07;;;0.30;99.90;;;;;;4160352;28;20032;-77
2021/04/23 03:08:23;;;;;;;33.55;10.00;;;0.20;99.90;;;;;;4144031;28;20162;-78
2021/04/23 03:10:31;;;;;;;32.97;10.15;;;0.30;99.90;;;;;;4155215;28;20037;-78
2021/04/23 03:12:32;;;;;;;18.05;8.60;;;0.30;99.90;;;;;;4173345;28;20034;-78
2021/04/23 03:14:33;;;;;;;20.60;9.02;;;0.20;99.90;;;;;;4161741;28;20052;-78
2021/04/23 03:16:37;;;;;;;22.42;10.38;;;0.20;99.90;;;;;;4160794;28;20087;-78
2021/04/23 03:18:42;;;;;;;22.52;9.93;;;0.10;99.90;;;;;;4144183;28;20104;-78
2021/04/23 03:20:43;;;;;;;23.13;10.27;;;0.10;99.90;;;;;;4147641;28;20061;-78
2021/04/23 03:22:44;;;;;;;21.85;10.00;;;0.10;99.90;;;;;;4143131;28;20454;-78
2021/04/23 03:24:45;;;;;;;23.90;11.25;;;0.00;99.90;;;;;;4143136;28;20123;-78
2021/04/23 03:26:47;;;;;;;21.77;10.05;;;0.10;99.90;;;;;;4144302;28;20477;-79
2021/04/23 03:28:49;;;;;;;22.35;9.25;;;0.10;99.90;;;;;;4149624;28;20505;-79
2021/04/23 03:30:50;;;;;;;22.55;9.52;;;0.10;99.90;;;;;;4162009;28;20080;-79
2021/04/23 03:32:50;;;;;;;19.77;9.18;;;0.20;99.90;;;;;;4161944;28;20037;-79
2021/04/23 03:34:51;;;;;;;27.08;10.35;;;0.10;99.90;;;;;;4145598;28;20508;-79
2021/04/23 03:36:52;;;;;;;29.92;11.05;;;0.10;99.90;;;;;;4160066;28;20552;-79
2021/04/23 03:38:53;;;;;;;26.65;9.45;;;0.10;99.90;;;;;;4163521;28;20083;-79
2021/04/23 03:40:56;;;;;;;24.17;9.73;;;0.10;99.90;;;;;;4163555;28;20522;-78
2021/04/23 03:42:58;;;;;;;28.00;10.05;;;0.00;99.90;;;;;;4146821;28;20038;-79
2021/04/23 03:44:59;;;;;;;26.73;11.80;;;0.10;99.90;;;;;;4163966;28;20065;-79
2021/04/23 03:47:00;;;;;;;23.45;9.90;;;0.10;99.90;;;;;;4147327;28;20029;-79
2021/04/23 03:49:02;;;;;;;21.20;10.52;;;0.10;99.90;;;;;;4162260;28;21931;-78
2021/04/23 03:51:04;;;;;;;29.10;12.27;;;0.00;99.90;;;;;;4163014;28;20040;-79
2021/04/23 03:53:11;;;;;;;23.27;9.65;;;0.10;99.90;;;;;;4163366;28;20034;-78
2021/04/23 03:55:20;;;;;;;19.95;9.70;;;0.10;99.90;;;;;;4146750;28;20532;-78
2021/04/23 03:57:21;;;;;;;25.38;10.52;;;0.10;99.90;;;;;;4147372;28;20404;-78
2021/04/23 03:59:22;;;;;;;21.65;9.70;;;-0.10;99.90;;;;;;4163453;28;20050;-79
2021/04/23 04:01:25;;;;;;;21.52;8.90;;;0.00;99.90;;;;;;4163053;28;20034;-77
2021/04/23 04:03:28;;;;;;;28.83;12.50;;;-0.10;99.90;;;;;;4163399;28;20026;-79
2021/04/23 04:05:29;;;;;;;20.20;9.93;;;0.00;99.90;;;;;;4146792;28;20030;-78
2021/04/23 04:07:29;;;;;;;23.73;9.65;;;0.10;99.90;;;;;;4146287;28;20030;-78
2021/04/23 04:09:30;;;;;;;21.05;9.55;;;0.10;99.90;;;;;;4146371;28;20049;-78
2021/04/23 04:11:31;;;;;;;25.13;9.70;;;0.10;99.90;;;;;;4151419;28;20059;-79
2021/04/23 04:13:33;;;;;;;32.13;11.15;;;0.20;99.90;;;;;;4147156;28;20557;-78
2021/04/23 04:15:36;;;;;;;27.77;11.02;;;0.30;99.90;;;;;;4146596;28;20109;-80
2021/04/23 04:17:37;;;;;;;21.15;9.05;;;0.30;99.90;;;;;;4159600;28;20064;-78
2021/04/23 04:19:37;;;;;;;29.92;11.00;;;0.30;99.90;;;;;;4146327;28;20038;-78
2021/04/23 04:21:38;;;;;;;29.67;10.13;;;0.50;99.90;;;;;;4150435;28;20119;-79
2021/04/23 04:23:39;;;;;;;27.25;10.48;;;0.60;99.90;;;;;;4163190;28;20044;-78
2021/04/23 04:25:42;;;;;;;24.90;11.93;;;0.60;99.90;;;;;;4163170;28;20030;-78
2021/04/23 04:27:43;;;;;;;25.27;9.52;;;0.70;99.90;;;;;;4155371;28;20479;-79
2021/04/23 04:29:45;;;;;;;28.58;11.13;;;0.70;99.90;;;;;;4159253;28;20041;-78
2021/04/23 04:31:47;;;;;;;24.13;10.32;;;0.60;99.90;;;;;;4158769;28;20504;-79
2021/04/23 04:33:50;;;;;;;28.38;10.20;;;0.70;99.90;;;;;;4145893;28;20036;-78
2021/04/23 04:35:51;;;;;;;26.02;11.40;;;0.80;99.90;;;;;;4147028;28;20517;-79
2021/04/23 04:37:52;;;;;;;25.73;10.50;;;0.80;99.90;;;;;;4129171;28;20041;-79
2021/04/23 04:39:53;;;;;;;25.55;11.00;;;1.10;99.90;;;;;;4129926;28;20518;-79
2021/04/23 04:41:54;;;;;;;34.35;11.23;;;1.30;99.90;;;;;;4152552;28;20044;-79
2021/04/23 04:43:54;;;;;;;28.70;11.40;;;1.30;99.90;;;;;;4146101;28;20357;-78
2021/04/23 04:45:55;;;;;;;29.00;10.55;;;1.30;99.90;;;;;;4141589;28;20033;-79
2021/04/23 04:47:57;;;;;;;32.72;11.43;;;1.30;99.90;;;;;;4150482;28;20026;-79
2021/04/23 04:50:00;;;;;;;27.48;11.02;;;1.30;99.90;;;;;;4162234;28;20511;-80
2021/04/23 04:52:01;;;;;;;28.90;12.07;;;1.40;99.90;;;;;;4145802;28;20049;-77
2021/04/23 04:54:04;;;;;;;33.20;11.10;;;1.60;99.90;;;;;;4160856;28;20029;-78
2021/04/23 04:56:05;;;;;;;29.55;10.75;;;1.90;99.90;;;;;;4162016;28;20037;-79
2021/04/23 04:58:08;;;;;;;27.33;11.80;;;1.90;99.90;;;;;;4146175;28;20038;-79
2021/04/23 05:00:11;;;;;;;;;;;2.10;99.90;;;;;;4162766;28;20055;-78
2021/04/23 05:02:13;;;;;;;33.17;12.02;;;2.20;99.90;;;;;;4145824;28;19917;-79
2021/04/23 05:04:15;;;;;;;41.07;11.87;;;2.20;99.90;;;;;;4162016;28;20074;-79
2021/04/23 05:06:18;;;;;;;27.33;11.82;;;2.40;99.90;;;;;;4146006;28;20084;-79
2021/04/23 05:08:19;;;;;;;34.08;10.82;;;2.50;99.90;;;;;;4146051;28;20036;-79
2021/04/23 05:10:20;;;;;;;27.00;11.00;;;2.50;99.90;;;;;;4138256;28;20132;-79
2021/04/23 05:12:21;;;;;;;24.55;11.02;;;2.50;99.90;;;;;;4150655;28;20174;-79
2021/04/23 05:14:24;;;;;;;31.50;11.48;;;;;;;;;;4132002;28;20517;-79
2021/04/23 05:16:26;;;;;;;32.40;12.35;;;;;;;;;;4132468;28;20034;-79
2021/04/23 05:18:28;;;;;;;27.52;11.55;;;;;;;;;;4161660;28;20025;-78
2021/04/23 05:20:31;;;;;;;29.77;11.88;;;;;;;;;;4162269;28;20034;-79
2021/04/23 05:22:33;;;;;;;25.88;11.05;;;2.70;99.90;;;;;;4142323;28;20045;-79
2021/04/23 05:24:36;;;;;;;37.50;12.07;;;;;;;;;;4160252;28;20113;-79
2021/04/23 05:26:37;;;;;;;25.73;12.52;;;2.90;99.90;;;;;;4147193;28;20049;-79
2021/04/23 05:28:39;;;;;;;31.83;11.50;;;;;;;;;;4160453;28;20048;-79
2021/04/23 05:30:40;;;;;;;22.55;10.93;;;3.20;99.90;;;;;;4143872;28;20069;-79
2021/04/23 05:32:41;;;;;;;33.45;13.00;;;3.10;99.90;;;;;;4160317;28;20124;-79
2021/04/23 05:34:41;;;;;;;34.40;12.00;;;3.10;99.90;;;;;;4144133;28;20041;-79
2021/04/23 05:36:45;;;;;;;21.77;10.32;;;3.00;99.90;;;;;;4143497;28;20033;-79
2021/04/23 05:38:46;;;;;;;25.15;11.23;;;3.00;99.90;;;;;;4154093;28;20829;-80
2021/04/23 05:40:48;;;;;;;27.02;11.45;;;3.00;99.90;;;;;;4144457;28;20103;-81
2021/04/23 05:42:49;;;;;;;21.58;11.18;;;3.00;99.90;;;;;;4159585;28;20095;-80
2021/04/23 05:44:49;;;;;;;23.35;10.75;;;3.00;99.90;;;;;;4146021;28;20030;-80
2021/04/23 05:46:51;;;;;;;22.20;10.52;;;2.90;99.90;;;;;;4139786;28;20113;-80
2021/04/23 05:48:52;;;;;;;31.25;11.82;;;2.80;99.90;;;;;;4159500;28;20083;-80
2021/04/23 05:50:53;;;;;;;35.75;13.05;;;2.70;99.90;;;;;;4153620;28;20144;-80
2021/04/23 05:52:54;;;;;;;19.95;10.15;;;2.60;99.90;;;;;;4137206;28;20037;-79
2021/04/23 05:54:55;;;;;;;25.58;11.05;;;2.50;99.90;;;;;;4150738;28;20049;-78
2021/04/23 05:56:56;;;;;;;29.10;11.65;;;2.50;99.90;;;;;;4157290;28;20038;-81
2021/04/23 05:58:58;;;;;;;27.00;10.10;;;2.50;99.90;;;;;;4157955;28;20569;-82
2021/04/23 06:00:59;;;;;;;30.30;11.80;;;2.50;99.90;;;;;;4145046;28;20033;-82
2021/04/23 06:03:01;;;;;;;34.88;11.60;;;2.60;99.90;;;;;;4148786;28;20511;-83
2021/04/23 06:05:05;;;;;;;35.20;13.48;;;2.70;99.90;;;;;;4136869;28;20404;-81
2021/04/23 06:07:06;;;;;;;27.05;10.68;;;2.70;99.90;;;;;;4127441;28;20034;-81
2021/04/23 06:09:07;;;;;;;36.50;11.60;;;2.90;99.90;;;;;;4130344;28;20038;-81
2021/04/23 06:11:16;;;;;;;27.10;10.93;;;3.00;99.90;;;;;;4144120;28;20096;-82
2021/04/23 06:13:17;;;;;;;23.35;11.13;;;3.10;99.90;;;;;;4128720;28;20093;-84
2021/04/23 06:15:18;;;;;;;37.45;10.20;;;3.20;99.90;;;;;;4133301;28;20140;-81
2021/04/23 06:17:19;;;;;;;27.85;10.43;;;3.30;99.90;;;;;;4145144;28;20080;-80
2021/04/23 06:19:20;;;;;;;26.30;10.50;;;3.40;99.90;;;;;;4144167;28;20070;-79
2021/04/23 06:21:21;;;;;;;24.17;10.50;;;3.50;99.90;;;;;;4149531;28;20405;-80
2021/04/23 06:23:22;;;;;;;19.30;10.55;;;3.60;99.90;;;;;;4142995;28;20038;-80
2021/04/23 06:25:23;;;;;;;22.27;10.55;;;3.60;99.90;;;;;;4160901;28;20030;-80
2021/04/23 06:27:24;;;;;;;24.17;8.85;;;3.60;99.90;;;;;;4150779;28;20026;-79
2021/04/23 06:29:25;;;;;;;19.58;10.18;;;3.60;99.90;;;;;;4152775;28;20083;-81
2021/04/23 06:31:29;;;;;;;18.33;9.95;;;;;;;;;;4155993;28;20153;-82
2021/04/23 06:33:36;;;;;;;25.10;10.48;;;4.70;99.90;;;;;;4145637;28;20045;-79
2021/04/23 06:35:38;;;;;;;23.45;8.93;;;;;;;;;;4154784;28;20547;-79
2021/04/23 06:37:39;;;;;;;20.85;9.05;;;;;;;;;;4148240;28;20034;-80
2021/04/23 06:39:40;;;;;;;33.10;13.32;;;4.00;99.90;;;;;;4155930;28;20112;-81
2021/04/23 06:41:41;;;;;;;22.80;8.70;;;;;;;;;;4117706;28;20034;-81
2021/04/23 06:43:43;;;;;;;20.05;9.45;;;4.40;99.90;;;;;;4171346;28;20078;-82
2021/04/23 06:45:45;;;;;;;21.88;8.98;;;4.40;99.90;;;;;;4134426;28;20027;-82
2021/04/23 06:47:47;;;;;;;20.23;7.53;;;4.40;99.90;;;;;;4127673;28;20046;-82
2021/04/23 06:49:47;;;;;;;16.33;8.25;;;4.50;99.90;;;;;;4144974;28;20038;-82
2021/04/23 06:51:48;;;;;;;25.70;8.23;;;4.70;99.90;;;;;;4143768;28;20037;-82
2021/04/23 06:53:49;;;;;;;20.30;7.85;;;4.70;99.90;;;;;;4133371;28;20430;-81
2021/04/23 06:55:50;;;;;;;28.30;8.70;;;4.80;99.90;;;;;;4115170;28;20031;-82
2021/04/23 06:57:51;;;;;;;19.63;7.82;;;4.80;99.90;;;;;;4127974;28;20144;-81
2021/04/23 06:59:52;;;;;;;22.20;9.38;;;5.00;99.90;;;;;;4123052;28;20093;-82
2021/04/23 07:01:53;;;;;;;20.38;8.18;;;5.10;99.90;;;;;;4147435;28;20041;-82
2021/04/23 07:03:55;;;;;;;18.27;8.05;;;5.10;99.90;;;;;;4133346;28;20018;-81
2021/04/23 07:05:58;;;;;;;20.35;8.52;;;5.20;99.90;;;;;;4162192;28;20029;-81
2021/04/23 07:07:59;;;;;;;20.00;7.22;;;5.30;99.90;;;;;;4154043;28;20495;-81
2021/04/23 07:10:00;;;;;;;16.30;6.78;;;5.40;99.90;;;;;;4156551;28;20193;-81
2021/04/23 07:12:02;;;;;;;14.05;7.22;;;5.50;99.90;;;;;;4152916;28;20386;-79
2021/04/23 07:14:03;;;;;;;22.77;7.47;;;5.50;99.90;;;;;;4159277;28;20603;-80
2021/04/23 07:16:04;;;;;;;18.88;8.63;;;5.60;99.90;;;;;;4159453;28;20032;-80
2021/04/23 07:18:05;;;;;;;16.38;7.35;;;5.70;99.90;;;;;;4158353;28;20358;-81
2021/04/23 07:20:07;;;;;;;18.70;6.50;;;5.80;99.90;;;;;;4145492;28;20053;-81
2021/04/23 07:22:08;;;;;;;14.93;7.65;;;6.00;99.90;;;;;;4161586;28;20048;-81
2021/04/23 07:24:09;;;;;;;14.63;6.82;;;6.10;99.90;;;;;;4157936;28;20099;-81
2021/04/23 07:26:10;;;;;;;12.27;6.03;;;6.20;99.90;;;;;;4161681;28;20412;-81
2021/04/23 07:28:11;;;;;;;15.88;6.43;;;6.20;99.90;;;;;;4145532;28;20132;-81
2021/04/23 07:30:20;;;;;;;18.13;5.97;;;6.30;99.90;;;;;;4151306;28;20026;-81
2021/04/23 07:32:20;;;;;;;24.02;6.70;;;6.40;99.90;;;;;;4159318;28;20056;-81
2021/04/23 07:34:22;;;;;;;14.85;6.57;;;6.60;99.90;;;;;;4157546;28;20187;-80
2021/04/23 07:36:24;;;;;;;15.52;6.38;;;6.70;99.90;;;;;;4152835;28;20092;-80
2021/04/23 07:38:26;;;;;;;23.92;6.30;;;6.80;99.90;;;;;;4144705;28;20082;-79
2021/04/23 07:40:28;;;;;;;15.20;5.97;;;6.90;99.90;;;;;;4145459;28;20035;-80
2021/04/23 07:42:30;;;;;;;9.70;5.38;;;6.90;99.90;;;;;;4145324;28;20041;-79
2021/04/23 07:44:31;;;;;;;22.23;7.28;;;7.00;99.90;;;;;;4161767;28;20460;-82
2021/04/23 07:46:33;;;;;;;17.20;5.45;;;7.10;99.90;;;;;;4163713;28;20099;-83
2021/04/23 07:48:35;;;;;;;8.00;4.68;;;7.10;99.90;;;;;;4163596;28;20473;-82
2021/04/23 07:50:37;;;;;;;15.70;6.20;;;7.30;99.90;;;;;;4146180;28;20348;-82
2021/04/23 07:52:38;;;;;;;13.05;5.18;;;7.40;99.90;;;;;;4150253;28;20041;-82
2021/04/23 07:54:39;;;;;;;16.27;5.13;;;7.50;99.90;;;;;;4130266;28;20046;-82
2021/04/23 07:56:40;;;;;;;11.95;6.18;;;7.60;99.90;;;;;;4156722;28;20050;-81
2021/04/23 07:58:41;;;;;;;12.98;5.80;;;7.90;99.90;;;;;;4148559;28;20042;-80
2021/04/23 08:00:42;;;;;;;8.85;3.97;;;8.30;99.90;;;;;;4160604;28;20179;-81
2021/04/23 08:02:45;;;;;;;10.40;5.25;;;8.80;99.90;;;;;;4148255;28;20156;-80
2021/04/23 08:04:45;;;;;;;9.70;4.25;;;9.00;99.90;;;;;;4145449;28;20034;-81
2021/04/23 08:06:48;;;;;;;17.17;5.25;;;9.30;99.90;;;;;;4131634;28;20461;-81
2021/04/23 08:08:49;;;;;;;11.80;4.63;;;9.50;99.90;;;;;;4177335;28;20467;-81
2021/04/23 08:10:49;;;;;;;9.73;4.65;;;9.60;99.90;;;;;;4146251;28;20049;-82
2021/04/23 08:12:52;;;;;;;9.35;4.38;;;9.80;99.90;;;;;;4177308;28;20040;-82
2021/04/23 08:14:53;;;;;;;9.00;3.75;;;9.80;99.90;;;;;;4161109;28;20052;-83
2021/04/23 08:16:53;;;;;;;11.32;4.63;;;10.10;99.90;;;;;;4177566;28;20029;-82
2021/04/23 08:18:54;;;;;;;11.75;5.45;;;10.30;99.90;;;;;;4155408;28;20037;-83
2021/04/23 08:20:55;;;;;;;9.20;4.03;;;10.40;99.90;;;;;;4146591;28;20509;-81
2021/04/23 08:22:58;;;;;;;12.50;4.88;;;10.50;99.90;;;;;;4150779;28;20046;-81
2021/04/23 08:25:00;;;;;;;9.25;4.32;;;10.60;99.90;;;;;;4157002;28;20109;-82
2021/04/23 08:27:00;;;;;;;14.13;4.70;;;10.70;99.90;;;;;;4146221;28;20398;-82
2021/04/23 08:29:02;;;;;;;12.60;5.10;;;10.80;99.90;;;;;;4154128;28;20037;-82
2021/04/23 08:31:04;;;;;;;14.15;4.22;;;10.70;99.90;;;;;;4142988;28;20045;-82
2021/04/23 08:33:05;;;;;;;11.38;5.22;;;10.50;99.90;;;;;;4145850;28;20026;-80
2021/04/23 08:35:09;;;;;;;8.70;4.32;;;10.30;99.90;;;;;;4152054;28;20034;-81
2021/04/23 08:37:09;;;;;;;15.05;5.22;;;10.20;99.90;;;;;;4162358;28;20541;-82
2021/04/23 08:39:11;;;;;;;11.40;4.20;;;10.00;99.90;;;;;;4154418;28;20120;-80
2021/04/23 08:41:12;;;;;;;13.57;4.32;;;10.00;99.90;;;;;;4157253;28;20033;-81
2021/04/23 08:43:13;;;;;;;9.45;4.43;;;10.00;99.90;;;;;;4144993;28;20059;-81
2021/04/23 08:45:18;;;;;;;16.80;4.38;;;10.40;99.90;;;;;;4161329;28;20604;-82
2021/04/23 08:47:19;;;;;;;12.00;4.40;;;10.90;99.90;;;;;;4130912;28;20494;-82
2021/04/23 08:49:23;;;;;;;11.75;5.20;;;;;;;;;;4157205;28;20100;-82
2021/04/23 08:51:24;;;;;;;11.00;4.45;;;11.40;99.90;;;;;;4157050;28;20065;-83
2021/04/23 08:53:28;;;;;;;10.35;4.55;;;11.20;99.90;;;;;;4136271;28;20077;-82
2021/04/23 08:55:29;;;;;;;13.80;4.47;;;11.10;99.90;;;;;;4160988;28;20511;-82
2021/04/23 08:57:30;;;;;;;10.30;4.10;;;11.00;99.90;;;;;;4155819;28;20037;-82
2021/04/23 08:59:31;;;;;;;9.77;5.25;;;10.80;99.90;;;;;;4144026;28;20121;-82
2021/04/23 09:01:32;;;;;;;13.68;4.38;;;10.90;99.90;;;;;;4151738;28;20612;-82
2021/04/23 09:03:33;;;;;;;12.13;4.28;;;10.70;99.90;;;;;;4144915;28;20050;-82
2021/04/23 09:05:33;;;;;;;13.70;4.85;;;10.90;99.90;;;;;;4161813;28;20033;-82
2021/04/23 09:07:34;;;;;;;16.25;6.05;;;10.90;99.90;;;;;;4145079;28;20045;-82
2021/04/23 09:09:42;;;;;;;9.77;4.32;;;11.20;99.90;;;;;;4142439;28;20050;-82
2021/04/23 09:11:44;;;;;;;9.45;4.80;;;11.40;99.90;;;;;;4144290;28;20115;-82
2021/04/23 09:13:53;;;;;;;6.97;4.97;;;11.60;99.90;;;;;;4159257;28;20540;-83
2021/04/23 09:15:55;;;;;;;10.73;4.20;;;11.60;99.90;;;;;;4160960;28;20049;-83
2021/04/23 09:18:24;;;;;;;10.93;4.95;;;11.80;99.90;;;;;;4139247;28;20397;-83
2021/04/23 09:20:26;;;;;;;11.18;4.22;;;12.00;99.90;;;;;;4126288;28;20042;-82
2021/04/23 09:22:31;;;;;;;11.73;4.05;;;12.20;99.90;;;;;;4151314;28;20061;-82
2021/04/23 09:24:58;;;;;;;12.13;4.10;;;12.30;99.90;;;;;;4127018;28;20537;-83
2021/04/23 09:27:11;;;;;;;14.05;4.43;;;12.30;99.90;;;;;;4152409;28;20037;-82
2021/04/23 09:29:33;;;;;;;9.43;4.00;;;11.90;99.90;;;;;;4144710;28;20030;-82
2021/04/23 09:31:35;;;;;;;8.38;4.25;;;11.80;99.90;;;;;;4144256;28;20428;-84
2021/04/23 09:33:56;;;;;;;12.05;3.92;;;11.90;99.90;;;;;;4129517;28;20038;-82
2021/04/23 09:35:58;;;;;;;12.40;4.63;;;12.10;99.90;;;;;;4139615;28;20038;-82
2021/04/23 09:38:01;;;;;;;11.80;4.30;;;12.10;99.90;;;;;;4146771;28;20033;-81
2021/04/23 09:40:23;;;;;;;;;;;12.10;99.90;;;;;;4143624;28;20080;-83
2021/04/23 09:42:24;;;;;;;15.38;4.13;;;12.30;99.90;;;;;;4153847;28;19962;-83
2021/04/23 09:44:36;;;;;;;13.98;4.28;;;12.50;99.90;;;;;;4151662;28;20030;-84
2021/04/23 09:46:38;;;;;;;12.15;4.85;;;13.00;99.90;;;;;;4146857;28;20085;-84
2021/04/23 09:48:39;;;;;;;14.23;4.45;;;13.60;99.90;;;;;;4146883;28;20030;-84
2021/04/23 09:50:40;;;;;;;10.93;3.97;;;14.10;99.90;;;;;;4147365;28;20041;-85
2021/04/23 09:52:47;;;;;;;18.00;5.43;;;14.30;99.90;;;;;;4133583;28;20034;-83
2021/04/23 09:54:57;;;;;;;13.88;4.10;;;14.40;99.90;;;;;;4137979;28;20103;-85
2021/04/23 09:56:59;;;;;;;10.13;3.90;;;14.50;99.90;;;;;;4146878;28;20048;-85
2021/04/23 09:59:32;;;;;;;11.85;4.60;;;14.20;99.90;;;;;;4138597;28;20045;-84
2021/04/23 10:02:05;;;;;;;12.82;5.43;;;14.20;99.90;;;;;;4113270;28;20041;-84
2021/04/23 10:04:30;;;;;;;8.65;3.50;;;14.20;99.90;;;;;;4135012;28;20033;-82
2021/04/23 10:06:33;;;;;;;9.88;4.70;;;14.50;99.90;;;;;;4145559;28;20109;-81
2021/04/23 10:08:34;;;;;;;8.23;3.65;;;14.60;99.90;;;;;;4155426;28;20444;-83
2021/04/23 10:10:37;;;;;;;13.25;4.05;;;14.70;99.90;;;;;;4162892;28;20048;-84
2021/04/23 10:12:49;;;;;;;9.07;3.83;;;14.90;99.90;;;;;;4145830;28;20555;-84
2021/04/23 10:15:14;;;;;;;18.15;4.53;;;14.80;99.90;;;;;;4160200;28;20026;-84
2021/04/23 10:17:21;;;;;;;11.02;4.25;;;14.70;99.90;;;;;;4142173;28;20180;-84
2021/04/23 10:19:22;;;;;;;8.60;4.63;;;14.70;99.90;;;;;;4159579;28;20038;-83
2021/04/23 10:21:23;;;;;;;10.50;3.10;;;14.80;99.90;;;;;;4165384;28;20369;-86
2021/04/23 10:23:24;;;;;;;9.25;3.50;;;14.80;99.90;;;;;;4162913;28;20108;-83
2021/04/23 10:25:27;;;;;;;16.48;3.60;;;15.20;99.90;;;;;;4161785;28;20487;-81
2021/04/23 10:27:27;;;;;;;11.40;3.97;;;15.30;99.90;;;;;;4163374;28;20090;-85
2021/04/23 10:29:29;;;;;;;9.02;4.28;;;15.70;99.90;;;;;;4156455;28;20188;-83
2021/04/23 10:31:31;;;;;;;6.50;3.47;;;16.00;99.90;;;;;;4161533;28;20036;-84
2021/04/23 10:33:33;;;;;;;8.40;3.85;;;19.20;99.90;;;;;;4146040;28;20037;-85
2021/04/23 10:35:35;;;;;;;9.55;3.65;;;16.10;99.90;;;;;;4163629;28;20038;-86
2021/04/23 10:37:37;;;;;;;7.27;3.43;;;15.70;99.90;;;;;;4161025;28;20250;-87
2021/04/23 10:39:41;;;;;;;10.85;4.68;;;15.90;97.70;;;;;;4161076;28;20034;-85